sensor_id;sensor_type;location;lat;lon;timestamp;temperature;humidity
28069;DHT22;15382;47.578;8.086;2023-05-10T00:05:23;12.50;99.90
28069;DHT22;15382;47.578;8.086;2023-05-10T00:15:24;12.50;99.90
28069;DHT22;15382;47.578;8.086;2023-05-10T00:25:25;12.50;99.90
28069;DHT22;15382;47.578;8.086;2023-05-10T00:35:25;12.50;99.90
28069;DHT22;15382;47.578;8.086;2023-05-10T00:45:28;12.40;99.90
28069;DHT22;15382;47.578;8.086;2023-05-10T00:55:29;12.50;99.90
28069;DHT22;15382;47.578;8.086;2023-05-10T01:05:30;12.40;99.90
28069;DHT22;15382;47.578;8.086;2023-05-10T01:15:32;12.40;99.90
28069;DHT22;15382;47.578;8.086;2023-05-10T01:36:01;12.40;99.90
28069;DHT22;15382;47.578;8.086;2023-05-10T01:46:10;12.40;99.90
28069;DHT22;15382;47.578;8.086;2023-05-10T01:56:15;12.30;99.90
28069;DHT22;15382;47.578;8.086;2023-05-10T02:06:18;12.40;99.90
28069;DHT22;15382;47.578;8.086;2023-05-10T02:16:24;12.30;99.90
28069;DHT22;15382;47.578;8.086;2023-05-10T02:26:26;12.30;99.90
28069;DHT22;15382;47.578;8.086;2023-05-10T02:36:27;12.30;99.90
28069;DHT22;15382;47.578;8.086;2023-05-10T02:46:29;12.20;99.90
28069;DHT22;15382;47.578;8.086;2023-05-10T02:56:34;12.20;99.90
28069;DHT22;15382;47.578;8.086;2023-05-10T03:06:36;12.10;99.90
28069;DHT22;15382;47.578;8.086;2023-05-10T03:16:56;12.00;99.90
28069;DHT22;15382;47.578;8.086;2023-05-10T03:27:00;12.00;99.90
28069;DHT22;15382;47.578;8.086;2023-05-10T03:37:03;12.00;99.90
28069;DHT22;15382;47.578;8.086;2023-05-10T03:47:06;12.00;99.90
28069;DHT22;15382;47.578;8.086;2023-05-10T03:57:07;12.00;99.90
28069;DHT22;15382;47.578;8.086;2023-05-10T04:07:08;12.00;99.90
28069;DHT22;15382;47.578;8.086;2023-05-10T04:17:11;11.90;99.90
28069;DHT22;15382;47.578;8.086;2023-05-10T04:27:11;11.90;99.90
28069;DHT22;15382;47.578;8.086;2023-05-10T04:37:12;11.80;99.90
28069;DHT22;15382;47.578;8.086;2023-05-10T04:47:13;11.80;99.90
28069;DHT22;15382;47.578;8.086;2023-05-10T04:57:14;11.80;99.90
28069;DHT22;15382;47.578;8.086;2023-05-10T05:07:14;11.80;99.90
28069;DHT22;15382;47.578;8.086;2023-05-10T05:17:15;11.80;99.90
28069;DHT22;15382;47.578;8.086;2023-05-10T05:27:16;11.80;99.90
28069;DHT22;15382;47.578;8.086;2023-05-10T05:37:18;11.80;99.90
28069;DHT22;15382;47.578;8.086;2023-05-10T05:47:19;11.70;99.90
28069;DHT22;15382;47.578;8.086;2023-05-10T05:57:20;11.40;99.90
28069;DHT22;15382;47.578;8.086;2023-05-10T06:07:20;11.50;99.90
28069;DHT22;15382;47.578;8.086;2023-05-10T06:17:22;11.40;99.90
28069;DHT22;15382;47.578;8.086;2023-05-10T06:27:22;11.20;99.90
28069;DHT22;15382;47.578;8.086;2023-05-10T06:37:23;11.20;99.90
28069;DHT22;15382;47.578;8.086;2023-05-10T06:47:24;11.40;99.90
28069;DHT22;15382;47.578;8.086;2023-05-10T06:57:25;11.50;99.90
28069;DHT22;15382;47.578;8.086;2023-05-10T07:07:26;11.50;99.90
28069;DHT22;15382;47.578;8.086;2023-05-10T07:17:26;11.60;99.90
28069;DHT22;15382;47.578;8.086;2023-05-10T07:27:27;11.70;99.90
28069;DHT22;15382;47.578;8.086;2023-05-10T07:37:28;12.00;99.90
28069;DHT22;15382;47.578;8.086;2023-05-10T07:47:29;12.30;99.90
28069;DHT22;15382;47.578;8.086;2023-05-10T07:57:30;12.70;99.90
28069;DHT22;15382;47.578;8.086;2023-05-10T08:07:31;12.90;99.90
28069;DHT22;15382;47.578;8.086;2023-05-10T08:17:32;12.60;99.90
28069;DHT22;15382;47.578;8.086;2023-05-10T08:27:32;13.10;99.90
28069;DHT22;15382;47.578;8.086;2023-05-10T08:37:33;13.20;99.90
28069;DHT22;15382;47.578;8.086;2023-05-10T08:47:36;12.50;99.90
28069;DHT22;15382;47.578;8.086;2023-05-10T08:57:38;13.20;99.90
28069;DHT22;15382;47.578;8.086;2023-05-10T09:07:39;13.60;99.90
28069;DHT22;15382;47.578;8.086;2023-05-10T09:17:40;13.40;99.90
28069;DHT22;15382;47.578;8.086;2023-05-10T09:27:44;13.70;99.90
28069;DHT22;15382;47.578;8.086;2023-05-10T09:37:47;14.10;99.90
28069;DHT22;15382;47.578;8.086;2023-05-10T09:47:49;14.70;99.90
28069;DHT22;15382;47.578;8.086;2023-05-10T09:57:58;15.20;99.90
28069;DHT22;15382;47.578;8.086;2023-05-10T10:08:04;15.70;99.90
28069;DHT22;15382;47.578;8.086;2023-05-10T10:18:05;16.40;99.90
28069;DHT22;15382;47.578;8.086;2023-05-10T10:28:39;17.10;99.90
28069;DHT22;15382;47.578;8.086;2023-05-10T10:49:07;16.40;99.90
28069;DHT22;15382;47.578;8.086;2023-05-10T10:59:09;15.50;99.90
28069;DHT22;15382;47.578;8.086;2023-05-10T11:09:11;15.00;99.90
28069;DHT22;15382;47.578;8.086;2023-05-10T11:19:15;14.80;99.90
28069;DHT22;15382;47.578;8.086;2023-05-10T11:29:17;14.50;99.90
28069;DHT22;15382;47.578;8.086;2023-05-10T11:39:18;15.80;99.90
28069;DHT22;15382;47.578;8.086;2023-05-10T11:49:18;16.60;99.90
28069;DHT22;15382;47.578;8.086;2023-05-10T11:59:21;16.60;99.90
28069;DHT22;15382;47.578;8.086;2023-05-10T12:09:21;16.30;99.90
28069;DHT22;15382;47.578;8.086;2023-05-10T12:19:22;16.10;99.90
28069;DHT22;15382;47.578;8.086;2023-05-10T12:29:23;16.30;99.90
28069;DHT22;15382;47.578;8.086;2023-05-10T12:39:24;15.70;99.90
28069;DHT22;15382;47.578;8.086;2023-05-10T12:49:25;15.80;99.90
28069;DHT22;15382;47.578;8.086;2023-05-10T12:59:26;16.10;99.90
28069;DHT22;15382;47.578;8.086;2023-05-10T13:09:27;16.00;99.90
28069;DHT22;15382;47.578;8.086;2023-05-10T13:19:29;16.30;99.90
28069;DHT22;15382;47.578;8.086;2023-05-10T13:29:30;16.90;99.90
28069;DHT22;15382;47.578;8.086;2023-05-10T13:39:31;16.80;99.90
28069;DHT22;15382;47.578;8.086;2023-05-10T13:49:34;16.50;99.90
28069;DHT22;15382;47.578;8.086;2023-05-10T13:59:35;16.50;99.90
28069;DHT22;15382;47.578;8.086;2023-05-10T14:09:36;16.50;99.90
28069;DHT22;15382;47.578;8.086;2023-05-10T14:19:37;16.30;99.90
28069;DHT22;15382;47.578;8.086;2023-05-10T14:29:37;16.70;99.90
28069;DHT22;15382;47.578;8.086;2023-05-10T14:39:38;17.50;99.90
28069;DHT22;15382;47.578;8.086;2023-05-10T14:49:39;17.80;99.90
28069;DHT22;15382;47.578;8.086;2023-05-10T14:59:41;17.30;99.90
28069;DHT22;15382;47.578;8.086;2023-05-10T15:09:42;17.00;99.90
28069;DHT22;15382;47.578;8.086;2023-05-10T15:19:42;17.10;99.90
28069;DHT22;15382;47.578;8.086;2023-05-10T15:29:43;17.10;99.90
28069;DHT22;15382;47.578;8.086;2023-05-10T15:39:44;17.60;99.90
28069;DHT22;15382;47.578;8.086;2023-05-10T15:49:45;17.70;99.90
28069;DHT22;15382;47.578;8.086;2023-05-10T15:59:46;17.20;99.90
28069;DHT22;15382;47.578;8.086;2023-05-10T16:09:46;17.30;99.90
28069;DHT22;15382;47.578;8.086;2023-05-10T16:19:49;17.00;99.90
28069;DHT22;15382;47.578;8.086;2023-05-10T16:29:49;16.60;99.90
28069;DHT22;15382;47.578;8.086;2023-05-10T16:39:50;16.40;99.90
28069;DHT22;15382;47.578;8.086;2023-05-10T16:49:51;16.30;99.90
28069;DHT22;15382;47.578;8.086;2023-05-10T16:59:52;15.60;99.90
28069;DHT22;15382;47.578;8.086;2023-05-10T17:09:53;15.70;99.90
28069;DHT22;15382;47.578;8.086;2023-05-10T17:19:53;15.40;99.90
28069;DHT22;15382;47.578;8.086;2023-05-10T17:29:55;14.90;99.90
28069;DHT22;15382;47.578;8.086;2023-05-10T17:39:56;14.60;99.90
28069;DHT22;15382;47.578;8.086;2023-05-10T17:49:57;14.70;99.90
28069;DHT22;15382;47.578;8.086;2023-05-10T17:59:58;14.40;99.90
28069;DHT22;15382;47.578;8.086;2023-05-10T18:09:59;14.20;99.90
28069;DHT22;15382;47.578;8.086;2023-05-10T18:20:00;13.90;99.90
28069;DHT22;15382;47.578;8.086;2023-05-10T18:30:01;13.70;99.90
28069;DHT22;15382;47.578;8.086;2023-05-10T18:40:02;13.50;99.90
28069;DHT22;15382;47.578;8.086;2023-05-10T18:50:04;13.50;99.90
28069;DHT22;15382;47.578;8.086;2023-05-10T19:00:10;13.10;99.90
28069;DHT22;15382;47.578;8.086;2023-05-10T19:10:12;13.20;99.90
28069;DHT22;15382;47.578;8.086;2023-05-10T19:20:15;12.90;99.90
28069;DHT22;15382;47.578;8.086;2023-05-10T19:30:16;12.60;99.90
28069;DHT22;15382;47.578;8.086;2023-05-10T19:40:17;12.60;99.90
28069;DHT22;15382;47.578;8.086;2023-05-10T19:50:18;12.70;99.90
28069;DHT22;15382;47.578;8.086;2023-05-10T20:00:18;13.10;99.90
28069;DHT22;15382;47.578;8.086;2023-05-10T20:10:20;12.80;99.90
28069;DHT22;15382;47.578;8.086;2023-05-10T20:20:21;12.70;99.90
28069;DHT22;15382;47.578;8.086;2023-05-10T20:30:23;12.40;99.90
28069;DHT22;15382;47.578;8.086;2023-05-10T20:40:24;12.30;99.90
28069;DHT22;15382;47.578;8.086;2023-05-10T20:50:24;12.10;99.90
28069;DHT22;15382;47.578;8.086;2023-05-10T21:00:25;12.00;99.90
28069;DHT22;15382;47.578;8.086;2023-05-10T21:10:26;11.80;99.90
28069;DHT22;15382;47.578;8.086;2023-05-10T21:20:28;11.60;99.90
28069;DHT22;15382;47.578;8.086;2023-05-10T21:30:29;11.60;99.90
28069;DHT22;15382;47.578;8.086;2023-05-10T21:40:29;11.60;99.90
28069;DHT22;15382;47.578;8.086;2023-05-10T21:50:30;11.50;99.90
28069;DHT22;15382;47.578;8.086;2023-05-10T22:00:31;11.50;99.90
28069;DHT22;15382;47.578;8.086;2023-05-10T22:10:32;11.10;99.90
28069;DHT22;15382;47.578;8.086;2023-05-10T22:20:32;11.00;99.90
28069;DHT22;15382;47.578;8.086;2023-05-10T22:30:33;10.90;99.90
28069;DHT22;15382;47.578;8.086;2023-05-10T22:40:34;10.90;99.90
28069;DHT22;15382;47.578;8.086;2023-05-10T22:50:35;10.90;99.90
28069;DHT22;15382;47.578;8.086;2023-05-10T23:00:36;10.90;99.90
28069;DHT22;15382;47.578;8.086;2023-05-10T23:10:37;10.70;99.90
28069;DHT22;15382;47.578;8.086;2023-05-10T23:20:40;10.70;99.90
28069;DHT22;15382;47.578;8.086;2023-05-10T23:30:42;10.60;99.90
28069;DHT22;15382;47.578;8.086;2023-05-10T23:40:46;10.30;99.90
28069;DHT22;15382;47.578;8.086;2023-05-10T23:50:47;10.10;99.90
